Time;durP1;ratioP1;P1;durP2;ratioP2;P2;SDS_P1;SDS_P2;PMS_P1;PMS_P2;Temp;Humidity;BMP_temperature;BMP_pressure;BME280_temperature;BME280_humidity;BME280_pressure;Samples;Min_cycle;Max_cycle;Signal;HPM_P1;HPM_P2
2023/02/23 00:01:15;;;;;;;52.65;37.53;;;9.30;99.90;;;;;;5003811;28;20300;-72
2023/02/23 00:03:43;;;;;;;55.83;40.40;;;9.30;99.90;;;;;;5007002;28;20274;-70
2023/02/23 00:06:10;;;;;;;57.65;39.80;;;9.20;99.90;;;;;;5007023;28;20232;-72
2023/02/23 00:08:37;;;;;;;85.22;54.90;;;9.20;99.90;;;;;;5000507;28;20248;-74
2023/02/23 00:11:06;;;;;;;79.70;52.35;;;9.20;99.90;;;;;;5007996;28;20251;-72
2023/02/23 00:13:36;;;;;;;76.53;52.33;;;9.10;99.90;;;;;;5003397;28;20667;-73
2023/02/23 00:16:07;;;;;;;65.90;46.25;;;9.10;99.90;;;;;;5003533;28;20306;-72
2023/02/23 00:18:43;;;;;;;62.58;42.97;;;9.20;99.90;;;;;;5004613;28;20268;-73
2023/02/23 00:21:15;;;;;;;61.97;42.28;;;9.20;99.90;;;;;;5002994;28;20706;-71
2023/02/23 00:23:44;;;;;;;53.30;38.20;;;9.20;99.90;;;;;;5008347;28;20217;-73
2023/02/23 00:26:12;;;;;;;55.63;38.80;;;9.20;99.90;;;;;;5006895;28;20235;-73
2023/02/23 00:28:43;;;;;;;59.28;40.85;;;9.20;99.90;;;;;;5004428;28;20707;-72
2023/02/23 00:31:11;;;;;;;62.28;41.88;;;9.20;99.90;;;;;;5007389;28;20235;-72
2023/02/23 00:33:39;;;;;;;52.63;39.13;;;9.30;99.90;;;;;;5007708;28;20216;-74
2023/02/23 00:36:09;;;;;;;53.50;37.60;;;9.30;99.90;;;;;;5006725;28;20208;-71
2023/02/23 00:38:36;;;;;;;49.80;36.33;;;9.30;99.90;;;;;;5000580;28;21716;-71
2023/02/23 00:41:08;;;;;;;55.42;37.20;;;9.30;99.90;;;;;;5006037;28;20223;-78
2023/02/23 00:43:37;;;;;;;54.63;38.17;;;9.40;99.90;;;;;;5008002;28;20410;-73
2023/02/23 00:46:06;;;;;;;54.58;37.88;;;9.40;99.90;;;;;;5005801;28;20234;-72
2023/02/23 00:48:34;;;;;;;63.60;44.08;;;9.40;99.90;;;;;;5004912;28;20310;-71
2023/02/23 00:51:02;;;;;;;57.88;40.60;;;9.30;99.90;;;;;;5004922;28;20530;-70
2023/02/23 00:53:29;;;;;;;54.22;39.88;;;9.30;99.90;;;;;;5005892;28;20224;-75
2023/02/23 00:55:56;;;;;;;64.18;42.60;;;9.20;99.90;;;;;;5008196;28;20232;-70
2023/02/23 00:58:24;;;;;;;55.40;40.58;;;9.20;99.90;;;;;;5004666;28;20307;-75
2023/02/23 01:00:52;;;;;;;63.33;43.63;;;9.10;99.90;;;;;;5005746;28;20254;-72
2023/02/23 01:03:20;;;;;;;56.85;39.45;;;9.10;99.90;;;;;;5006694;28;20312;-71
2023/02/23 01:05:49;;;;;;;60.15;40.75;;;9.10;99.90;;;;;;5004772;28;20710;-72
2023/02/23 01:08:16;;;;;;;60.90;41.38;;;9.10;99.90;;;;;;5005088;28;20250;-75
2023/02/23 01:10:51;;;;;;;56.83;40.22;;;9.10;99.90;;;;;;5006667;28;20220;-75
2023/02/23 01:13:18;;;;;;;53.95;38.55;;;9.10;99.90;;;;;;5006080;28;20227;-73
2023/02/23 01:15:46;;;;;;;60.33;42.05;;;9.00;99.90;;;;;;5004255;28;20300;-71
2023/02/23 01:18:14;;;;;;;69.80;41.95;;;9.00;99.90;;;;;;5001035;28;20243;-71
2023/02/23 01:20:42;;;;;;;56.75;40.33;;;9.00;99.90;;;;;;5005876;28;20228;-72
2023/02/23 01:23:11;;;;;;;59.92;41.33;;;9.00;99.90;;;;;;5004411;28;20375;-72
2023/02/23 01:25:39;;;;;;;55.55;38.42;;;9.00;99.90;;;;;;5006693;28;20196;-74
2023/02/23 01:28:06;;;;;;;60.75;40.83;;;9.00;99.90;;;;;;5008623;28;20307;-72
2023/02/23 01:30:33;;;;;;;61.50;41.42;;;9.00;99.90;;;;;;5009889;28;20231;-71
2023/02/23 01:33:01;;;;;;;62.08;42.42;;;9.00;99.90;;;;;;5003230;28;20283;-73
2023/02/23 01:35:28;;;;;;;60.85;41.45;;;9.00;99.90;;;;;;5007692;28;20473;-72
2023/02/23 01:37:57;;;;;;;60.33;42.08;;;8.90;99.90;;;;;;5009186;28;20232;-73
2023/02/23 01:40:28;;;;;;;60.67;41.75;;;8.90;99.90;;;;;;5007381;28;20266;-76
2023/02/23 01:42:57;;;;;;;61.05;41.13;;;8.90;99.90;;;;;;5008176;28;20435;-72
2023/02/23 01:45:31;;;;;;;56.92;40.80;;;8.90;99.90;;;;;;5008122;28;20203;-75
2023/02/23 01:48:01;;;;;;;56.83;41.35;;;8.90;99.90;;;;;;5009452;28;20218;-76
2023/02/23 01:50:32;;;;;;;60.50;40.20;;;8.90;99.90;;;;;;5009739;28;20291;-73
2023/02/23 01:53:01;;;;;;;58.63;41.25;;;8.90;99.90;;;;;;5009218;28;20255;-74
2023/02/23 01:55:28;;;;;;;57.63;40.95;;;8.90;99.90;;;;;;5008912;28;20232;-72
2023/02/23 01:58:03;;;;;;;60.45;41.20;;;8.90;99.90;;;;;;5009813;28;20343;-74
2023/02/23 02:00:35;;;;;;;65.53;42.95;;;8.90;99.90;;;;;;5013166;28;20247;-73
2023/02/23 02:03:07;;;;;;;66.90;45.70;;;8.90;99.90;;;;;;5011131;28;20471;-72
2023/02/23 02:05:37;;;;;;;65.82;44.65;;;8.80;99.90;;;;;;5010586;28;20523;-76
2023/02/23 02:08:09;;;;;;;64.72;43.70;;;8.80;99.90;;;;;;5012595;28;20228;-76
2023/02/23 02:10:45;;;;;;;59.40;41.22;;;8.80;99.90;;;;;;5011609;28;20208;-72
2023/02/23 02:13:21;;;;;;;64.00;44.85;;;8.80;99.90;;;;;;5008211;28;20694;-71
2023/02/23 02:16:18;;;;;;;68.45;45.88;;;8.80;99.90;;;;;;5007304;28;20748;-75
2023/02/23 02:19:04;;;;;;;69.50;46.60;;;8.80;99.90;;;;;;5004737;28;20626;-72
2023/02/23 02:22:03;;;;;;;64.15;42.90;;;8.80;99.90;;;;;;5008737;28;20229;-71
2023/02/23 02:25:09;;;;;;;59.40;42.03;;;8.70;99.90;;;;;;5010107;28;20252;-73
2023/02/23 02:27:57;;;;;;;53.95;39.20;;;8.60;99.90;;;;;;5007526;28;20204;-72
2023/02/23 02:30:53;;;;;;;58.28;40.05;;;8.70;99.90;;;;;;5003560;28;20257;-74
2023/02/23 02:33:50;;;;;;;51.25;35.70;;;8.70;99.90;;;;;;5009572;28;20583;-73
2023/02/23 02:36:30;;;;;;;66.53;42.92;;;8.70;99.90;;;;;;4999608;28;20291;-76
2023/02/23 02:39:21;;;;;;;59.72;43.05;;;8.70;99.90;;;;;;5001460;28;20216;-73
2023/02/23 02:41:57;;;;;;;61.85;42.67;;;8.70;99.90;;;;;;5008173;28;20733;-72
2023/02/23 02:44:31;;;;;;;60.88;42.53;;;8.60;99.90;;;;;;5009932;28;20229;-71
2023/02/23 02:47:04;;;;;;;63.35;42.53;;;8.70;99.90;;;;;;5008341;28;20965;-71
2023/02/23 02:49:39;;;;;;;66.82;45.25;;;8.70;99.90;;;;;;5003339;28;20270;-70
2023/02/23 02:52:13;;;;;;;59.65;40.42;;;8.70;99.90;;;;;;5009457;28;20215;-71
2023/02/23 02:54:47;;;;;;;60.67;41.42;;;8.60;99.90;;;;;;5009590;28;20266;-71
2023/02/23 02:57:15;;;;;;;59.40;40.88;;;8.60;99.90;;;;;;5005157;28;20203;-71
2023/02/23 04:18:21;;;;;;;69.47;48.03;;;7.90;99.90;;;;;;5005701;28;20298;-73
2023/02/23 04:20:48;;;;;;;70.60;44.13;;;7.90;99.90;;;;;;5001882;28;20243;-72
2023/02/23 04:23:15;;;;;;;66.85;45.28;;;7.90;99.90;;;;;;5006573;28;20658;-72
2023/02/23 04:25:42;;;;;;;67.15;45.60;;;8.00;99.90;;;;;;5005968;28;20228;-72
2023/02/23 04:28:09;;;;;;;66.10;44.40;;;8.00;99.90;;;;;;5007309;28;20312;-71
2023/02/23 04:30:36;;;;;;;65.47;44.20;;;8.00;99.90;;;;;;5007157;28;20661;-76
2023/02/23 04:33:03;;;;;;;64.20;43.70;;;8.00;99.90;;;;;;5063792;22;20265;-69
2023/02/23 04:35:31;;;;;;;63.70;43.95;;;8.00;99.90;;;;;;5032494;28;20199;-70
2023/02/23 04:37:58;;;;;;;67.43;45.28;;;8.10;99.90;;;;;;5043729;28;20253;-70
2023/02/23 04:40:26;;;;;;;65.93;43.35;;;8.10;99.90;;;;;;5049819;28;20636;-70
2023/02/23 04:42:54;;;;;;;62.83;42.70;;;8.10;99.90;;;;;;5046501;28;20238;-69
2023/02/23 04:45:21;;;;;;;63.80;42.13;;;8.10;99.90;;;;;;5049944;28;20249;-69
2023/02/23 04:47:49;;;;;;;67.00;45.10;;;8.10;99.90;;;;;;5028099;28;20229;-70
2023/02/23 04:50:17;;;;;;;65.93;43.13;;;8.20;99.90;;;;;;5048713;28;20318;-69
2023/02/23 04:52:45;;;;;;;61.13;42.53;;;8.20;99.90;;;;;;5048546;28;20211;-70
2023/02/23 04:55:17;;;;;;;63.60;43.67;;;8.20;99.90;;;;;;5047818;28;20301;-70
2023/02/23 04:57:44;;;;;;;57.83;40.15;;;8.20;99.90;;;;;;5048395;28;20278;-70
2023/02/23 05:00:12;;;;;;;67.10;43.55;;;8.20;99.90;;;;;;5044361;28;20239;-71
2023/02/23 05:02:40;;;;;;;62.85;41.92;;;8.20;99.90;;;;;;5053042;28;20235;-70
2023/02/23 05:05:08;;;;;;;67.07;43.42;;;8.20;99.90;;;;;;5052282;28;20257;-71
2023/02/23 05:07:36;;;;;;;64.82;43.95;;;8.20;99.90;;;;;;5047427;28;20203;-70
2023/02/23 05:10:06;;;;;;;68.00;44.67;;;8.20;99.90;;;;;;5034049;28;20219;-70
2023/02/23 05:12:33;;;;;;;67.25;44.72;;;8.30;99.90;;;;;;5050303;28;20245;-70
2023/02/23 05:15:00;;;;;;;90.38;56.40;;;8.30;99.90;;;;;;5045332;28;20253;-70
2023/02/23 05:17:27;;;;;;;68.10;48.20;;;8.30;99.90;;;;;;5048289;28;20633;-70
2023/02/23 05:19:55;;;;;;;67.15;46.15;;;8.30;99.90;;;;;;5043459;28;20242;-70
2023/02/23 05:22:22;;;;;;;71.95;46.50;;;8.20;99.90;;;;;;5047009;28;20253;-71
2023/02/23 05:24:49;;;;;;;68.43;45.95;;;8.20;99.90;;;;;;5030365;28;20246;-71
2023/02/23 05:27:18;;;;;;;66.43;44.03;;;8.20;99.90;;;;;;5029884;28;20197;-70
2023/02/23 05:29:45;;;;;;;61.17;43.28;;;8.20;99.90;;;;;;5026637;28;20330;-70
2023/02/23 05:32:12;;;;;;;60.65;42.60;;;8.20;99.90;;;;;;5048396;28;20745;-70
2023/02/23 05:34:39;;;;;;;61.58;42.55;;;8.20;99.90;;;;;;5049005;28;20242;-70
2023/02/23 05:37:06;;;;;;;57.42;40.28;;;8.20;99.90;;;;;;5045522;28;20198;-71
2023/02/23 05:39:34;;;;;;;65.45;43.38;;;8.20;99.90;;;;;;5029872;28;21918;-70
2023/02/23 05:42:01;;;;;;;60.17;42.30;;;8.20;99.90;;;;;;5045015;28;20307;-70
2023/02/23 05:44:29;;;;;;;61.42;42.50;;;8.20;99.90;;;;;;5045575;28;20356;-70
2023/02/23 05:46:56;;;;;;;66.40;44.70;;;8.20;99.90;;;;;;5045178;28;20287;-70
2023/02/23 05:49:24;;;;;;;62.67;42.40;;;8.20;99.90;;;;;;5042834;28;20310;-72
2023/02/23 05:51:51;;;;;;;60.80;43.00;;;8.20;99.90;;;;;;5043534;28;20715;-70
2023/02/23 05:54:18;;;;;;;57.65;40.60;;;8.20;99.90;;;;;;5046727;28;20317;-69
2023/02/23 05:56:45;;;;;;;60.65;39.60;;;8.20;99.90;;;;;;5046977;28;20314;-69
2023/02/23 05:59:13;;;;;;;58.80;40.30;;;8.20;99.90;;;;;;5012148;28;20606;-69
2023/02/23 06:01:41;;;;;;;57.05;40.42;;;8.30;99.90;;;;;;5044272;28;20601;-69
2023/02/23 06:04:08;;;;;;;64.80;41.78;;;8.30;99.90;;;;;;5041939;28;20280;-70
2023/02/23 06:06:36;;;;;;;54.45;38.03;;;8.30;99.90;;;;;;5041391;28;20303;-69
2023/02/23 06:09:03;;;;;;;62.28;42.58;;;8.40;99.90;;;;;;5044673;28;20318;-70
2023/02/23 06:11:30;;;;;;;66.30;44.30;;;8.40;99.90;;;;;;5046478;28;20310;-70
2023/02/23 06:13:59;;;;;;;57.40;41.88;;;8.30;99.90;;;;;;5047847;28;20219;-70
2023/02/23 06:16:26;;;;;;;68.97;46.83;;;8.30;99.90;;;;;;5031960;28;20664;-70
2023/02/23 06:18:55;;;;;;;70.85;46.03;;;8.30;99.90;;;;;;5051297;28;20674;-68
2023/02/23 06:21:23;;;;;;;66.25;43.75;;;8.30;99.90;;;;;;5051947;28;20710;-70
2023/02/23 06:23:52;;;;;;;73.72;47.47;;;8.30;99.90;;;;;;5029767;28;20245;-70
2023/02/23 06:26:19;;;;;;;63.53;43.90;;;8.20;99.90;;;;;;5045578;28;20206;-69
2023/02/23 06:28:46;;;;;;;71.60;47.72;;;8.20;99.90;;;;;;5051579;28;20314;-70
2023/02/23 06:31:13;;;;;;;68.85;45.55;;;8.20;99.90;;;;;;5050638;28;20302;-70
2023/02/23 06:33:40;;;;;;;82.18;50.70;;;8.20;99.90;;;;;;5033726;28;20241;-69
2023/02/23 06:36:09;;;;;;;76.18;49.78;;;8.20;99.90;;;;;;5049640;28;20279;-70
2023/02/23 06:38:36;;;;;;;72.82;49.47;;;8.10;99.90;;;;;;5049302;28;20305;-70
2023/02/23 06:41:08;;;;;;;74.60;50.22;;;8.10;99.90;;;;;;5051096;28;20681;-70
2023/02/23 06:43:35;;;;;;;75.82;49.17;;;8.10;99.90;;;;;;5049561;28;20218;-69
2023/02/23 06:46:03;;;;;;;70.60;45.42;;;8.10;99.90;;;;;;5027275;28;20282;-70
2023/02/23 06:48:30;;;;;;;64.40;44.88;;;8.10;99.90;;;;;;5050447;28;20602;-71
2023/02/23 06:50:58;;;;;;;63.88;43.05;;;8.10;99.90;;;;;;5051722;28;20305;-70
2023/02/23 06:53:27;;;;;;;63.90;42.45;;;8.10;99.90;;;;;;5049602;28;20254;-70
2023/02/23 06:55:55;;;;;;;61.13;41.97;;;8.10;99.90;;;;;;5029284;28;20278;-69
2023/02/23 06:58:22;;;;;;;58.78;39.45;;;8.10;99.90;;;;;;5032524;28;20586;-70
2023/02/23 07:00:49;;;;;;;61.75;43.50;;;8.10;99.90;;;;;;5049090;28;20290;-70
2023/02/23 07:03:18;;;;;;;64.53;42.15;;;8.20;99.90;;;;;;5051019;28;20251;-70
2023/02/23 07:05:45;;;;;;;64.15;41.83;;;8.20;99.90;;;;;;5034562;28;20199;-70
2023/02/23 07:08:12;;;;;;;64.05;43.70;;;8.20;99.90;;;;;;5049465;28;20637;-69
2023/02/23 07:10:41;;;;;;;72.43;45.85;;;8.30;99.90;;;;;;5031237;28;20223;-70
2023/02/23 07:13:08;;;;;;;68.05;45.28;;;8.30;99.90;;;;;;5047634;28;20222;-69
2023/02/23 07:15:35;;;;;;;71.28;50.17;;;8.30;99.90;;;;;;5051539;28;20318;-69
2023/02/23 07:18:03;;;;;;;70.95;47.33;;;8.30;99.90;;;;;;5049790;28;20295;-69
2023/02/23 07:20:30;;;;;;;71.30;46.80;;;8.30;99.90;;;;;;5049847;28;20707;-69
2023/02/23 07:22:57;;;;;;;74.30;48.83;;;8.30;99.90;;;;;;5046230;28;20216;-69
2023/02/23 07:25:24;;;;;;;67.20;46.92;;;8.20;99.90;;;;;;5030608;28;20206;-70
2023/02/23 07:27:53;;;;;;;64.47;44.25;;;8.20;99.90;;;;;;5048685;28;20581;-71
2023/02/23 07:30:23;;;;;;;62.75;43.95;;;8.30;99.90;;;;;;5047423;28;20223;-70
2023/02/23 07:32:50;;;;;;;59.20;40.70;;;8.30;99.90;;;;;;5030695;28;20310;-71
2023/02/23 07:35:17;;;;;;;57.67;40.45;;;8.40;99.90;;;;;;5046436;28;20690;-70
2023/02/23 07:37:44;;;;;;;58.03;40.97;;;8.40;99.90;;;;;;5032928;28;20278;-70
2023/02/23 07:40:13;;;;;;;66.65;45.40;;;8.50;99.90;;;;;;5047626;28;20234;-70
2023/02/23 07:42:40;;;;;;;83.28;50.38;;;8.50;99.90;;;;;;5046216;28;20722;-70
2023/02/23 07:45:10;;;;;;;68.18;45.03;;;8.60;99.90;;;;;;5028475;28;20225;-69
2023/02/23 07:47:38;;;;;;;71.90;47.80;;;8.60;99.90;;;;;;5058172;22;20230;-80
2023/02/23 07:50:08;;;;;;;71.45;48.92;;;8.60;99.90;;;;;;5031055;28;20258;-80
2023/02/23 07:52:36;;;;;;;70.90;46.53;;;8.60;99.90;;;;;;5034118;28;20227;-84
2023/02/23 07:55:03;;;;;;;75.32;49.35;;;8.60;99.90;;;;;;5026187;28;20223;-78
2023/02/23 07:57:30;;;;;;;71.32;47.50;;;8.80;99.90;;;;;;5028086;28;20262;-84
2023/02/23 07:59:57;;;;;;;70.63;47.55;;;8.80;99.90;;;;;;5031561;28;20258;-78
2023/02/23 08:02:27;;;;;;;73.43;48.97;;;8.80;99.90;;;;;;5029308;28;20697;-87
2023/02/23 08:04:54;;;;;;;77.32;49.08;;;8.80;99.90;;;;;;5028903;28;20250;-77
2023/02/23 08:07:23;;;;;;;75.90;50.47;;;8.80;99.90;;;;;;5034874;28;20235;-87
2023/02/23 08:09:50;;;;;;;77.00;51.85;;;8.80;99.90;;;;;;5034570;28;20311;-88
2023/02/23 08:12:17;;;;;;;75.40;52.15;;;8.90;99.90;;;;;;5027180;28;20314;-89
2023/02/23 08:14:44;;;;;;;72.65;49.80;;;8.90;99.90;;;;;;5030650;28;20224;-87
2023/02/23 08:17:11;;;;;;;73.22;50.60;;;9.00;99.90;;;;;;5028621;28;20218;-81
2023/02/23 08:19:40;;;;;;;75.95;51.75;;;9.00;99.90;;;;;;5030996;28;20225;-88
2023/02/23 08:22:07;;;;;;;81.07;51.80;;;9.10;99.90;;;;;;5029285;28;20222;-85
2023/02/23 08:24:34;;;;;;;73.80;49.65;;;9.10;99.90;;;;;;5034553;28;20219;-82
2023/02/23 08:27:02;;;;;;;80.65;55.53;;;9.20;99.90;;;;;;5040023;28;20192;-87
2023/02/23 08:29:29;;;;;;;77.20;53.35;;;9.20;99.90;;;;;;5032636;28;20219;-82
2023/02/23 08:31:59;;;;;;;73.75;50.40;;;9.20;99.90;;;;;;5029228;28;20255;-78
2023/02/23 08:34:26;;;;;;;76.57;50.78;;;9.30;99.90;;;;;;5027793;28;20235;-85
2023/02/23 08:36:54;;;;;;;76.70;52.20;;;9.40;99.90;;;;;;5027823;28;20193;-85
2023/02/23 08:39:21;;;;;;;85.97;56.88;;;9.50;99.90;;;;;;5028446;28;20222;-82
2023/02/23 08:41:48;;;;;;;89.47;59.55;;;9.50;99.90;;;;;;5028285;28;20500;-79
2023/02/23 08:44:15;;;;;;;81.35;56.13;;;9.50;99.90;;;;;;5030071;28;20305;-76
2023/02/23 08:46:44;;;;;;;88.40;57.65;;;9.50;99.90;;;;;;5028760;28;20626;-85
2023/02/23 08:49:11;;;;;;;85.80;56.90;;;9.50;99.90;;;;;;5023143;28;20614;-82
2023/02/23 08:51:40;;;;;;;86.75;58.42;;;9.60;99.90;;;;;;5026644;28;20246;-79
2023/02/23 08:54:13;;;;;;;81.95;55.30;;;9.70;99.90;;;;;;5026232;28;20752;-81
2023/02/23 08:56:40;;;;;;;88.32;56.22;;;9.80;99.90;;;;;;5027371;28;20795;-85
2023/02/23 08:59:07;;;;;;;80.30;54.63;;;9.90;99.90;;;;;;5028492;28;20234;-82
2023/02/23 09:01:35;;;;;;;89.68;58.50;;;10.00;99.90;;;;;;5028879;28;20243;-82
2023/02/23 09:04:02;;;;;;;85.25;54.55;;;10.10;99.90;;;;;;5027938;28;20763;-84
2023/02/23 09:06:30;;;;;;;86.72;58.78;;;10.20;99.90;;;;;;5028524;28;20985;-84
2023/02/23 09:08:57;;;;;;;84.78;57.08;;;10.30;99.90;;;;;;5031253;28;20220;-79
2023/02/23 09:11:26;;;;;;;86.50;59.05;;;10.40;99.90;;;;;;5028450;28;20251;-77
2023/02/23 09:13:53;;;;;;;91.72;61.00;;;10.40;99.90;;;;;;5032085;28;20246;-85
2023/02/23 09:16:20;;;;;;;77.85;54.90;;;10.50;99.90;;;;;;5032357;28;20203;-86
2023/02/23 09:18:47;;;;;;;92.40;59.13;;;10.50;99.90;;;;;;5031614;28;20230;-83
2023/02/23 09:21:19;;;;;;;89.45;58.55;;;10.60;99.90;;;;;;5032888;28;20683;-80
2023/02/23 09:23:48;;;;;;;83.95;56.28;;;10.60;99.90;;;;;;5031783;28;20220;-81
2023/02/23 09:26:16;;;;;;;90.78;59.53;;;10.60;99.90;;;;;;5034365;28;20432;-83
2023/02/23 09:28:45;;;;;;;93.40;61.58;;;10.70;99.90;;;;;;5028169;28;21951;-82
2023/02/23 09:31:15;;;;;;;87.40;58.72;;;10.80;99.90;;;;;;5032254;28;20246;-85
2023/02/23 09:33:42;;;;;;;88.03;58.10;;;10.80;99.90;;;;;;5033797;28;20219;-82
2023/02/23 09:36:11;;;;;;;92.30;61.55;;;10.70;99.90;;;;;;5030697;28;20223;-84
2023/02/23 09:38:39;;;;;;;93.45;61.17;;;10.60;99.90;;;;;;5029803;28;20211;-83
2023/02/23 09:41:27;;;;;;;83.50;58.13;;;10.50;99.90;;;;;;5030506;28;20195;-78
2023/02/23 09:44:01;;;;;;;88.45;59.33;;;10.50;99.90;;;;;;5026910;28;20220;-78
2023/02/23 09:46:35;;;;;;;81.07;55.50;;;10.40;99.90;;;;;;5028459;28;20254;-82
2023/02/23 09:49:03;;;;;;;85.10;57.03;;;10.40;99.90;;;;;;5032992;28;20223;-86
2023/02/23 09:51:37;;;;;;;84.82;57.00;;;10.40;99.90;;;;;;5037546;28;20227;-79
2023/02/23 09:54:07;;;;;;;76.22;54.05;;;10.50;99.90;;;;;;5030752;28;20242;-77
2023/02/23 09:56:37;;;;;;;85.47;54.72;;;10.40;99.90;;;;;;5025481;28;20195;-77
2023/02/23 09:59:07;;;;;;;91.72;63.33;;;10.40;99.90;;;;;;5027704;28;20350;-79
2023/02/23 10:01:53;;;;;;;88.82;61.13;;;10.40;99.90;;;;;;5032657;28;20216;-84
2023/02/23 10:04:23;;;;;;;80.00;55.92;;;10.40;99.90;;;;;;5035932;28;20771;-83
2023/02/23 10:06:55;;;;;;;89.45;58.38;;;10.50;99.90;;;;;;5041314;28;20198;-82
2023/02/23 10:09:28;;;;;;;87.05;60.15;;;10.50;99.90;;;;;;5031835;28;20223;-77
2023/02/23 10:12:04;;;;;;;83.63;56.75;;;10.60;99.90;;;;;;5029601;28;20223;-82
2023/02/23 10:14:53;;;;;;;87.03;61.03;;;10.60;99.90;;;;;;5035238;28;20219;-85
2023/02/23 10:17:29;;;;;;;93.40;60.92;;;10.60;99.90;;;;;;5032394;28;20223;-80
2023/02/23 10:20:04;;;;;;;106.68;68.90;;;10.70;99.90;;;;;;5037332;28;20286;-80
2023/02/23 10:22:34;;;;;;;97.40;64.97;;;10.70;99.90;;;;;;5035491;28;20268;-86
2023/02/23 10:25:07;;;;;;;104.07;69.05;;;10.70;99.90;;;;;;5034830;28;20710;-85
2023/02/23 10:27:40;;;;;;;89.85;61.35;;;10.70;99.90;;;;;;5035701;28;20203;-81
2023/02/23 10:30:19;;;;;;;91.85;60.63;;;10.80;99.90;;;;;;5037237;28;20704;-86
2023/02/23 10:32:54;;;;;;;93.60;63.08;;;10.90;99.90;;;;;;5032308;28;20270;-81
2023/02/23 10:35:23;;;;;;;88.03;59.47;;;10.90;99.90;;;;;;5033935;28;20680;-82
2023/02/23 10:37:52;;;;;;;91.57;61.47;;;11.00;99.90;;;;;;5045405;22;20635;-78
2023/02/23 10:40:22;;;;;;;91.10;61.42;;;11.10;99.90;;;;;;5034471;28;20273;-85
2023/02/23 10:42:51;;;;;;;95.47;61.85;;;11.10;99.90;;;;;;5039906;28;20287;-89
2023/02/23 10:45:23;;;;;;;100.45;66.75;;;11.10;99.90;;;;;;5048229;28;20226;-81
2023/02/23 10:47:55;;;;;;;89.13;60.17;;;11.10;99.90;;;;;;5049908;28;20215;-81
2023/02/23 10:50:25;;;;;;;94.43;64.20;;;11.20;99.90;;;;;;5050657;28;20203;-83
2023/02/23 10:52:58;;;;;;;102.78;67.82;;;11.20;99.90;;;;;;5051159;28;20195;-85
2023/02/23 10:55:27;;;;;;;100.32;66.10;;;11.30;99.90;;;;;;5032447;28;20201;-90
2023/02/23 10:58:15;;;;;;;106.88;73.07;;;11.20;99.90;;;;;;5041971;28;20676;-81
2023/02/23 11:00:53;;;;;;;95.10;65.47;;;11.20;99.90;;;;;;5054553;28;20238;-87
2023/02/23 11:03:30;;;;;;;93.65;61.13;;;11.40;99.90;;;;;;5050091;28;20211;-89
2023/02/23 11:05:59;;;;;;;92.10;60.25;;;11.40;99.90;;;;;;5049480;28;20210;-95
2023/02/23 11:08:30;;;;;;;88.07;60.03;;;11.60;99.90;;;;;;5050224;28;20257;-90
2023/02/23 11:11:13;;;;;;;97.80;65.47;;;11.80;99.90;;;;;;5057079;28;20226;-93
2023/02/23 11:13:43;;;;;;;97.72;65.57;;;11.90;99.90;;;;;;5052390;28;20211;-90
2023/02/23 11:19:21;;;;;;;102.18;69.38;;;11.80;99.90;;;;;;5055401;28;20219;-85
2023/02/23 11:21:51;;;;;;;95.28;62.72;;;11.90;99.90;;;;;;5049619;28;20195;-84
2023/02/23 11:24:25;;;;;;;96.88;64.90;;;12.00;99.90;;;;;;5050423;28;20294;-93
2023/02/23 11:26:56;;;;;;;101.72;65.35;;;12.20;99.90;;;;;;5053394;28;20274;-87
2023/02/23 11:29:32;;;;;;;106.97;70.78;;;12.30;99.90;;;;;;5053978;28;20228;-86
2023/02/23 11:32:08;;;;;;;94.22;63.63;;;12.30;99.90;;;;;;5051138;28;20215;-90
2023/02/23 11:34:39;;;;;;;100.32;67.93;;;12.30;99.90;;;;;;5033487;28;20277;-88
2023/02/23 11:37:18;;;;;;;110.22;70.95;;;12.40;99.90;;;;;;5028015;28;20227;-85
2023/02/23 11:39:54;;;;;;;100.55;67.38;;;12.50;99.90;;;;;;5049253;28;20236;-81
2023/02/23 11:42:24;;;;;;;104.07;72.15;;;12.80;99.90;;;;;;5034287;28;20199;-90
2023/02/23 11:45:01;;;;;;;112.85;74.80;;;12.90;99.90;;;;;;5049006;28;20230;-89
2023/02/23 11:47:32;;;;;;;95.15;65.55;;;12.80;99.90;;;;;;5046257;28;20231;-86
2023/02/23 11:50:00;;;;;;;105.70;68.07;;;12.80;99.90;;;;;;5051386;28;20253;-90
2023/02/23 11:52:27;;;;;;;108.10;70.47;;;12.80;99.90;;;;;;5055368;28;20216;-85
2023/02/23 11:54:57;;;;;;;95.38;64.32;;;12.80;99.90;;;;;;5043426;28;20250;-90
2023/02/23 11:57:34;;;;;;;95.45;64.35;;;12.70;99.90;;;;;;5031853;28;20212;-89
2023/02/23 12:00:11;;;;;;;95.55;65.93;;;12.90;99.90;;;;;;5057393;28;20210;-86
2023/02/23 12:02:50;;;;;;;95.18;66.95;;;13.30;99.90;;;;;;5056361;28;20183;-86
2023/02/23 12:05:24;;;;;;;103.43;68.57;;;13.20;99.90;;;;;;5049791;28;20210;-88
2023/02/23 12:07:56;;;;;;;102.45;67.75;;;13.20;99.90;;;;;;5044950;28;20226;-91
2023/02/23 12:10:26;;;;;;;96.32;64.45;;;13.00;99.90;;;;;;5050968;28;20204;-88
2023/02/23 12:13:03;;;;;;;97.30;65.65;;;12.80;99.90;;;;;;5035324;28;20250;-91
2023/02/23 12:15:41;;;;;;;92.47;60.60;;;12.70;99.90;;;;;;5050251;28;20195;-89
2023/02/23 12:18:18;;;;;;;100.95;65.78;;;12.70;99.90;;;;;;5039147;28;20198;-89
2023/02/23 12:20:48;;;;;;;97.72;66.78;;;12.60;99.90;;;;;;5053178;28;20203;-88
2023/02/23 12:23:21;;;;;;;89.82;61.65;;;12.50;99.90;;;;;;5059140;28;20269;-90
2023/02/23 12:25:52;;;;;;;88.40;62.35;;;12.70;99.90;;;;;;5036549;28;20222;-90
2023/02/23 12:28:29;;;;;;;94.60;64.18;;;12.70;99.90;;;;;;5031348;28;20224;-92
2023/02/23 12:31:01;;;;;;;91.07;61.95;;;12.80;99.90;;;;;;5051952;28;20205;-89
2023/02/23 12:33:39;;;;;;;94.30;62.90;;;12.80;99.90;;;;;;5055063;28;20254;-90
2023/02/23 12:36:19;;;;;;;90.10;59.72;;;12.70;99.90;;;;;;5051309;28;20226;-89
2023/02/23 12:38:57;;;;;;;84.75;58.33;;;12.80;99.90;;;;;;5050316;28;20230;-90
2023/02/23 12:41:32;;;;;;;97.40;62.35;;;12.80;99.90;;;;;;5050296;28;20203;-90
2023/02/23 12:50:37;;;;;;;85.90;57.80;;;12.60;99.90;;;;;;5052853;28;20278;-91
2023/02/23 12:53:13;;;;;;;79.80;55.30;;;12.50;99.90;;;;;;5053125;28;20211;-90
2023/02/23 12:55:49;;;;;;;75.38;50.80;;;12.60;99.90;;;;;;5051814;28;20186;-89
2023/02/23 12:58:24;;;;;;;85.90;56.83;;;12.70;99.90;;;;;;5051407;28;20253;-87
2023/02/23 13:00:59;;;;;;;89.93;59.50;;;12.70;99.90;;;;;;5053756;28;20206;-90
2023/02/23 13:03:48;;;;;;;79.60;54.78;;;12.70;99.90;;;;;;5052678;28;20253;-91
2023/02/23 13:06:29;;;;;;;80.40;55.78;;;12.60;99.90;;;;;;5036089;28;20204;-90
2023/02/23 13:09:11;;;;;;;81.97;55.75;;;12.70;99.90;;;;;;5050064;28;20231;-89
2023/02/23 13:12:01;;;;;;;72.72;50.30;;;12.80;99.90;;;;;;5051280;28;20207;-90
2023/02/23 13:14:38;;;;;;;68.70;49.30;;;12.80;99.90;;;;;;5046534;28;20223;-88
2023/02/23 13:17:15;;;;;;;69.93;48.05;;;12.80;99.90;;;;;;5036940;28;20321;-90
2023/02/23 13:19:52;;;;;;;80.90;54.95;;;13.00;99.90;;;;;;5032588;28;20211;-89
2023/02/23 13:22:31;;;;;;;75.68;51.88;;;12.90;99.90;;;;;;5053715;28;20195;-88
2023/02/23 13:25:02;;;;;;;72.50;50.63;;;12.80;99.90;;;;;;5053875;28;20223;-90
2023/02/23 13:27:36;;;;;;;83.03;57.03;;;12.80;99.90;;;;;;5050871;28;20215;-90
2023/02/23 13:30:04;;;;;;;75.18;52.45;;;12.70;99.90;;;;;;5051923;28;20211;-89
2023/02/23 13:32:35;;;;;;;71.60;48.58;;;12.70;99.90;;;;;;5054266;28;20215;-88
2023/02/23 13:35:05;;;;;;;64.00;43.72;;;12.80;99.90;;;;;;5049078;28;20219;-90
2023/02/23 13:37:42;;;;;;;59.47;43.67;;;12.90;99.90;;;;;;5056536;28;20242;-92
2023/02/23 13:40:24;;;;;;;77.28;53.08;;;13.00;99.90;;;;;;5036824;28;20207;-90
2023/02/23 13:43:05;;;;;;;62.13;42.15;;;13.10;99.90;;;;;;5052507;28;20267;-87
2023/02/23 13:45:52;;;;;;;61.85;41.20;;;13.10;99.90;;;;;;5051603;28;20227;-85
2023/02/23 13:48:29;;;;;;;69.60;47.17;;;13.30;99.90;;;;;;5051319;28;20227;-88
2023/02/23 13:51:02;;;;;;;62.85;43.70;;;13.40;99.90;;;;;;5054781;28;20191;-87
2023/02/23 13:53:39;;;;;;;63.28;43.85;;;13.30;99.90;;;;;;5054181;28;20223;-87
2023/02/23 13:56:09;;;;;;;60.97;41.90;;;13.30;99.90;;;;;;5055519;28;20202;-89
2023/02/23 13:58:37;;;;;;;64.85;42.28;;;13.30;99.90;;;;;;5052405;28;20212;-87
2023/02/23 14:01:09;;;;;;;59.63;40.72;;;13.20;99.90;;;;;;5055879;28;20183;-89
2023/02/23 14:03:43;;;;;;;58.65;40.55;;;13.20;99.90;;;;;;5051417;28;20291;-90
2023/02/23 14:06:15;;;;;;;58.70;39.65;;;13.10;99.90;;;;;;5053165;28;20229;-91
2023/02/23 14:08:46;;;;;;;62.92;41.80;;;13.10;99.90;;;;;;5039305;28;20388;-92
2023/02/23 14:11:34;;;;;;;62.67;43.17;;;13.00;99.90;;;;;;5051946;28;20274;-92
2023/02/23 14:14:04;;;;;;;59.83;42.63;;;13.00;99.90;;;;;;5052373;28;20250;-90
2023/02/23 14:16:31;;;;;;;60.60;41.42;;;13.00;99.90;;;;;;5053977;28;20212;-91
2023/02/23 14:19:14;;;;;;;56.47;40.72;;;12.90;99.90;;;;;;5050717;28;20434;-89
2023/02/23 14:21:51;;;;;;;66.78;42.70;;;12.90;99.90;;;;;;5048692;28;20202;-88